createdAt,value
2018-06-22T00:01:50.711Z,9.28
2018-06-22T00:04:19.963Z,9.32
2018-06-22T00:06:49.135Z,9.45
2018-06-22T00:09:18.522Z,9.48
2018-06-22T00:11:48.350Z,9.38
2018-06-22T00:14:17.959Z,9.25
2018-06-22T00:16:47.139Z,9.15
2018-06-22T00:19:16.459Z,9.16
2018-06-22T00:21:45.665Z,9.22
2018-06-22T00:24:15.708Z,9.14
2018-06-22T00:26:44.880Z,9.14
2018-06-22T00:29:14.379Z,9.08
2018-06-22T00:31:44.079Z,8.99
2018-06-22T00:34:13.251Z,9.00
2018-06-22T00:36:42.793Z,8.89
2018-06-22T00:39:14.022Z,8.74
2018-06-22T00:41:43.206Z,8.77
2018-06-22T00:44:12.379Z,8.66
2018-06-22T00:46:41.639Z,8.66
2018-06-22T00:49:11.186Z,8.62
2018-06-22T00:51:40.386Z,8.55
2018-06-22T00:54:17.194Z,8.58
2018-06-22T00:57:48.903Z,8.42
2018-06-22T01:00:18.064Z,8.36
2018-06-22T01:02:47.295Z,8.30
2018-06-22T01:05:16.508Z,8.22
2018-06-22T01:07:45.709Z,8.26
2018-06-22T01:10:14.901Z,8.24
2018-06-22T01:12:44.142Z,8.20
2018-06-22T01:15:13.436Z,8.15
2018-06-22T01:17:42.998Z,8.04
2018-06-22T01:20:12.552Z,8.04
2018-06-22T01:22:41.772Z,8.10
2018-06-22T01:25:11.271Z,8.10
2018-06-22T01:27:40.487Z,8.19
2018-06-22T01:30:09.696Z,8.15
2018-06-22T01:32:39.175Z,8.10
2018-06-22T01:35:08.404Z,8.12
2018-06-22T01:37:37.871Z,8.05
2018-06-22T01:40:07.509Z,8.03
2018-06-22T01:42:36.751Z,7.94
2018-06-22T01:45:06.032Z,8.07
2018-06-22T01:47:35.599Z,8.13
2018-06-22T01:50:05.545Z,8.17
2018-06-22T01:52:34.756Z,8.30
2018-06-22T01:55:04.994Z,8.52
2018-06-22T01:57:34.642Z,8.70
2018-06-22T02:00:04.139Z,8.84
2018-06-22T02:02:33.599Z,8.70
2018-06-22T02:05:03.174Z,8.94
2018-06-22T02:07:32.363Z,8.94
2018-06-22T02:10:01.827Z,8.93
2018-06-22T02:12:31.037Z,8.93
2018-06-22T02:15:00.284Z,9.12
2018-06-22T02:17:29.739Z,9.10
2018-06-22T02:19:58.971Z,9.07
2018-06-22T02:22:29.009Z,9.16
2018-06-22T02:24:58.232Z,9.12
2018-06-22T02:27:27.428Z,9.12
2018-06-22T02:29:57.113Z,9.27
2018-06-22T02:32:26.748Z,9.40
2018-06-22T02:34:55.993Z,9.31
2018-06-22T02:37:25.203Z,9.29
2018-06-22T02:39:54.757Z,9.38
2018-06-22T02:42:24.244Z,9.41
2018-06-22T02:44:53.773Z,9.29
2018-06-22T02:47:23.239Z,9.37
2018-06-22T02:49:52.929Z,9.33
2018-06-22T02:52:22.116Z,9.34
2018-06-22T02:54:51.329Z,9.39
2018-06-22T02:57:21.173Z,9.43
2018-06-22T02:59:50.694Z,9.38
2018-06-22T03:02:20.592Z,9.46
2018-06-22T03:04:50.949Z,9.47
2018-06-22T03:07:20.257Z,9.38
2018-06-22T03:09:49.772Z,9.40
2018-06-22T03:12:18.991Z,9.29
2018-06-22T03:14:48.664Z,9.28
2018-06-22T03:17:17.851Z,9.25
2018-06-22T03:19:47.450Z,9.09
2018-06-22T03:22:16.647Z,8.98
2018-06-22T03:24:45.819Z,9.09
2018-06-22T03:27:15.441Z,9.05
2018-06-22T03:29:44.613Z,9.11
2018-06-22T03:32:13.903Z,9.18
2018-06-22T03:34:42.987Z,9.19
2018-06-22T03:37:12.926Z,9.23
2018-06-22T03:39:42.650Z,9.25
2018-06-22T03:42:12.167Z,9.43
2018-06-22T03:44:41.333Z,9.38
2018-06-22T03:47:10.525Z,9.51
2018-06-22T03:49:39.701Z,9.53
2018-06-22T03:52:08.908Z,9.56
2018-06-22T03:54:38.972Z,9.37
2018-06-22T03:57:09.011Z,9.25
2018-06-22T03:59:38.544Z,9.36
2018-06-22T04:02:08.254Z,9.40
2018-06-22T04:04:37.426Z,9.51
2018-06-22T04:07:06.612Z,9.75
2018-06-22T04:09:36.058Z,9.86
2018-06-22T04:12:05.529Z,9.69
2018-06-22T04:14:35.216Z,9.86
2018-06-22T04:17:04.752Z,10.05
2018-06-22T04:19:33.930Z,10.13
2018-06-22T04:22:04.051Z,9.98
2018-06-22T04:24:33.548Z,10.20
2018-06-22T04:27:02.751Z,10.23
2018-06-22T04:29:32.456Z,10.16
2018-06-22T04:32:01.624Z,10.19
2018-06-22T04:34:30.811Z,10.28
2018-06-22T04:37:00.400Z,10.24
2018-06-22T04:39:29.603Z,10.16
2018-06-22T04:41:58.886Z,9.99
2018-06-22T04:44:28.070Z,9.99
2018-06-22T04:46:59.121Z,9.88
2018-06-22T04:49:28.439Z,10.01
2018-06-22T04:51:57.622Z,10.04
2018-06-22T04:54:26.840Z,10.03
2018-06-22T04:56:56.003Z,10.14
2018-06-22T04:59:32.138Z,10.35
2018-06-22T05:02:01.295Z,10.60
2018-06-22T05:04:30.715Z,10.95
2018-06-22T05:06:59.924Z,11.08
2018-06-22T05:09:30.374Z,11.41
2018-06-22T05:12:00.192Z,11.20
2018-06-22T05:14:30.022Z,11.12
2018-06-22T05:16:59.633Z,11.54
2018-06-22T05:19:28.822Z,11.50
2018-06-22T05:21:58.241Z,11.77
2018-06-22T05:24:27.775Z,11.81
2018-06-22T05:26:56.943Z,11.43
2018-06-22T05:29:26.653Z,11.13
2018-06-22T05:31:55.880Z,11.57
2018-06-22T05:34:25.043Z,11.18
2018-06-22T05:36:54.261Z,10.88
2018-06-22T05:39:23.840Z,11.40
2018-06-22T05:41:53.788Z,11.37
2018-06-22T05:44:23.279Z,11.43
2018-06-22T05:46:52.462Z,11.54
2018-06-22T05:49:21.887Z,11.59
2018-06-22T05:51:51.128Z,11.41
2018-06-22T05:54:20.904Z,11.67
2018-06-22T05:56:50.179Z,11.61
2018-06-22T05:59:19.400Z,11.74
2018-06-22T06:01:48.595Z,11.85
2018-06-22T06:04:18.080Z,11.58
2018-06-22T06:06:47.906Z,11.24
2018-06-22T06:09:17.082Z,11.18
2018-06-22T06:11:46.282Z,11.20
2018-06-22T06:14:15.442Z,11.22
2018-06-22T06:16:44.646Z,10.84
2018-06-22T06:19:13.838Z,10.69
2018-06-22T06:21:43.022Z,10.91
2018-06-22T06:24:12.203Z,11.13
2018-06-22T06:26:41.914Z,11.22
2018-06-22T06:29:11.086Z,11.42
2018-06-22T06:31:40.280Z,11.95
2018-06-22T06:34:09.799Z,12.22
2018-06-22T06:36:39.351Z,12.31
2018-06-22T06:39:08.642Z,12.58
2018-06-22T06:41:37.827Z,12.54
2018-06-22T06:44:07.035Z,13.06
2018-06-22T06:46:36.492Z,13.16
2018-06-22T06:49:06.036Z,13.01
2018-06-22T06:51:35.530Z,12.66
2018-06-22T06:54:05.103Z,12.84
2018-06-22T06:56:34.447Z,13.20
2018-06-22T06:59:03.667Z,13.60
2018-06-22T07:01:32.833Z,13.42
2018-06-22T07:04:02.453Z,12.87
2018-06-22T07:06:31.628Z,12.41
2018-06-22T07:09:00.839Z,12.32
2018-06-22T07:11:30.659Z,12.31
2018-06-22T07:14:00.271Z,12.24
2018-06-22T07:16:30.044Z,12.72
2018-06-22T07:18:59.463Z,12.52
2018-06-22T07:21:28.867Z,12.82
2018-06-22T07:23:58.341Z,12.85
2018-06-22T07:26:27.514Z,12.50
2018-06-22T07:28:57.022Z,12.73
2018-06-22T07:31:26.192Z,13.26
2018-06-22T07:33:55.395Z,13.57
2018-06-22T07:36:24.564Z,13.18
2018-06-22T07:39:08.700Z,13.01
2018-06-22T07:41:37.871Z,12.78
2018-06-22T07:44:07.344Z,12.77
2018-06-22T07:46:36.516Z,13.03
2018-06-22T07:49:05.714Z,13.13
2018-06-22T07:51:34.895Z,13.32
2018-06-22T07:54:04.472Z,13.48
2018-06-22T07:56:33.655Z,13.62
2018-06-22T07:59:03.076Z,13.74
2018-06-22T08:01:32.269Z,13.21
2018-06-22T08:04:01.739Z,13.08
2018-06-22T08:06:30.963Z,13.25
2018-06-22T08:09:00.152Z,13.00
2018-06-22T08:11:29.396Z,13.09
2018-06-22T08:13:59.379Z,13.19
2018-06-22T08:16:28.954Z,13.51
2018-06-22T08:18:58.367Z,13.93
2018-06-22T08:21:27.935Z,14.14
2018-06-22T08:23:57.170Z,14.13
2018-06-22T08:26:27.303Z,14.41
2018-06-22T08:28:57.002Z,14.09
2018-06-22T08:31:26.728Z,14.13
2018-06-22T08:33:55.907Z,13.95
2018-06-22T08:36:25.111Z,14.07
2018-06-22T08:38:54.299Z,14.11
2018-06-22T08:41:23.989Z,13.99
2018-06-22T08:43:53.155Z,13.83
2018-06-22T08:46:23.256Z,13.35
2018-06-22T08:48:52.512Z,13.31
2018-06-22T08:51:21.666Z,13.31
2018-06-22T08:53:51.135Z,13.34
2018-06-22T08:56:20.335Z,13.36
2018-06-22T08:58:49.527Z,13.36
2018-06-22T09:01:19.419Z,13.40
2018-06-22T09:03:48.570Z,13.31
2018-06-22T09:06:18.149Z,13.07
2018-06-22T09:08:47.491Z,13.08
2018-06-22T09:11:16.668Z,13.11
2018-06-22T09:13:46.007Z,13.30
2018-06-22T09:16:15.186Z,13.33
2018-06-22T09:18:44.627Z,13.52
2018-06-22T09:21:14.491Z,13.66
2018-06-22T09:23:43.694Z,13.46
2018-06-22T09:26:12.869Z,13.25
2018-06-22T09:28:42.092Z,13.11
2018-06-22T09:31:11.507Z,13.28
2018-06-22T09:33:41.451Z,13.33
2018-06-22T09:36:10.642Z,13.24
2018-06-22T09:38:40.123Z,13.41
2018-06-22T09:41:09.295Z,13.18
2018-06-22T09:43:38.914Z,13.63
2018-06-22T09:46:08.101Z,13.95
2018-06-22T09:48:37.556Z,14.24
2018-06-22T09:51:07.035Z,14.21
2018-06-22T09:53:36.555Z,14.26
2018-06-22T09:56:06.623Z,13.82
2018-06-22T09:58:35.810Z,13.94
2018-06-22T10:01:05.443Z,13.73
2018-06-22T10:03:34.978Z,13.75
2018-06-22T10:06:04.527Z,13.75
2018-06-22T10:08:33.735Z,13.81
2018-06-22T10:11:03.359Z,13.99
2018-06-22T10:13:32.972Z,14.66
2018-06-22T10:16:02.483Z,14.93
2018-06-22T10:18:32.075Z,15.37
2018-06-22T10:21:01.277Z,14.93
2018-06-22T10:23:30.616Z,14.56
2018-06-22T10:25:59.977Z,14.18
2018-06-22T10:28:29.155Z,14.14
2018-06-22T10:30:59.070Z,13.62
2018-06-22T10:33:28.874Z,13.65
2018-06-22T10:35:58.439Z,13.24
2018-06-22T10:38:27.639Z,13.25
2018-06-22T10:40:57.171Z,13.15
2018-06-22T10:43:26.351Z,13.22
2018-06-22T10:45:55.636Z,13.38
2018-06-22T10:48:24.914Z,13.51
2018-06-22T10:50:54.139Z,13.46
2018-06-22T10:53:23.699Z,13.37
2018-06-22T10:55:53.251Z,13.55
2018-06-22T10:58:22.454Z,13.84
2018-06-22T11:00:51.719Z,13.48
2018-06-22T11:03:20.908Z,13.53
2018-06-22T11:05:51.243Z,13.92
2018-06-22T11:08:20.350Z,14.91
2018-06-22T11:10:49.562Z,15.22
2018-06-22T11:13:18.942Z,16.12
2018-06-22T11:15:48.155Z,15.79
2018-06-22T11:18:17.389Z,16.01
2018-06-22T11:20:46.570Z,16.22
2018-06-22T11:23:16.395Z,15.79
2018-06-22T11:25:45.591Z,15.34
2018-06-22T11:28:14.846Z,14.88
2018-06-22T11:30:44.535Z,14.67
2018-06-22T11:33:13.739Z,14.63
2018-06-22T11:35:43.208Z,14.88
2018-06-22T11:38:12.402Z,15.26
2018-06-22T11:40:41.608Z,15.39
2018-06-22T11:43:11.097Z,15.47
2018-06-22T11:45:41.332Z,15.96
2018-06-22T11:48:10.748Z,16.36
2018-06-22T11:50:40.235Z,16.84
2018-06-22T11:53:09.884Z,17.19
2018-06-22T11:55:39.522Z,16.83
2018-06-22T11:58:08.743Z,17.42
2018-06-22T12:00:38.704Z,18.43
2018-06-22T12:03:07.923Z,18.85
2018-06-22T12:05:37.582Z,18.55
2018-06-22T12:08:06.843Z,17.43
2018-06-22T12:10:36.031Z,18.07
2018-06-22T12:13:05.838Z,18.07
2018-06-22T12:15:35.472Z,18.81
2018-06-22T12:18:05.583Z,19.75
2018-06-22T12:20:34.822Z,20.40
2018-06-22T12:23:04.384Z,19.69
2018-06-22T12:25:33.798Z,18.23
2018-06-22T12:28:03.011Z,18.93
2018-06-22T12:30:32.600Z,20.85
2018-06-22T12:33:02.679Z,20.63
2018-06-22T12:37:00.987Z,21.37
2018-06-22T12:39:30.430Z,19.93
2018-06-22T12:42:00.009Z,18.99
2018-06-22T12:44:29.252Z,18.44
2018-06-22T12:46:58.522Z,17.40
2018-06-22T12:49:28.052Z,17.27
2018-06-22T12:51:57.304Z,18.22
2018-06-22T12:54:26.883Z,18.51
2018-06-22T12:56:56.575Z,18.06
2018-06-22T12:59:26.187Z,17.71
2018-06-22T13:01:55.363Z,18.12
2018-06-22T13:04:24.581Z,17.58
2018-06-22T13:06:54.482Z,17.57
2018-06-22T13:09:23.695Z,17.97
2018-06-22T13:11:52.896Z,17.87
2018-06-22T13:14:22.075Z,18.54
2018-06-22T13:16:51.596Z,18.93
2018-06-22T13:19:20.779Z,18.88
2018-06-22T13:21:52.139Z,18.33
2018-06-22T13:24:22.550Z,17.51
2018-06-22T13:26:51.830Z,17.11
2018-06-22T13:29:21.103Z,17.05
2018-06-22T13:31:50.710Z,17.35
2018-06-22T13:34:19.921Z,17.45
2018-06-22T13:36:49.508Z,17.65
2018-06-22T13:39:19.402Z,18.13
2018-06-22T13:41:48.904Z,17.94
2018-06-22T13:44:18.111Z,17.70
2018-06-22T13:46:47.319Z,17.76
2018-06-22T13:49:16.711Z,18.09
2018-06-22T13:51:45.910Z,18.70
2018-06-22T13:54:15.171Z,18.23
2018-06-22T13:56:44.491Z,18.63
2018-06-22T13:59:14.286Z,18.90
2018-06-22T14:01:44.515Z,18.51
2018-06-22T14:04:19.321Z,18.55
2018-06-22T14:06:54.141Z,19.16
2018-06-22T14:09:23.388Z,20.05
2018-06-22T14:11:52.607Z,20.41
2018-06-22T14:14:21.786Z,20.45
2018-06-22T14:16:51.031Z,23.06
2018-06-22T14:19:20.433Z,24.21
2018-06-22T14:21:49.845Z,22.27
2018-06-22T14:24:19.025Z,21.56
2018-06-22T14:26:48.694Z,20.66
2018-06-22T14:29:18.297Z,20.23
2018-06-22T14:31:47.475Z,19.54
2018-06-22T14:34:16.682Z,19.64
2018-06-22T14:36:45.916Z,19.04
2018-06-22T14:39:15.114Z,18.11
2018-06-22T14:41:44.298Z,17.68
2018-06-22T14:44:13.519Z,17.07
2018-06-22T14:46:42.732Z,17.20
2018-06-22T14:49:11.951Z,17.06
2018-06-22T14:51:41.124Z,17.18
2018-06-22T14:54:15.619Z,17.37
2018-06-22T14:56:50.311Z,17.20
2018-06-22T14:59:24.719Z,17.02
2018-06-22T15:02:00.226Z,17.03
2018-06-22T15:04:34.751Z,17.24
2018-06-22T15:07:09.347Z,17.72
2018-06-22T15:09:39.088Z,17.95
2018-06-22T15:12:09.298Z,17.98
2018-06-22T15:14:38.512Z,17.60
2018-06-22T15:17:11.677Z,17.67
2018-06-22T15:19:42.152Z,17.75
2018-06-22T15:22:13.892Z,17.27
2018-06-22T15:24:43.602Z,17.19
2018-06-22T15:27:12.791Z,16.93
2018-06-22T15:29:42.027Z,16.95
2018-06-22T15:32:11.455Z,17.08
2018-06-22T15:34:45.939Z,17.04
2018-06-22T15:37:20.559Z,17.20
2018-06-22T15:39:54.994Z,17.61
2018-06-22T15:42:29.707Z,17.52
2018-06-22T15:45:04.614Z,17.16
2018-06-22T15:47:39.602Z,17.10
2018-06-22T15:50:14.098Z,16.56
2018-06-22T15:52:49.078Z,16.59
2018-06-22T15:55:20.711Z,16.68
2018-06-22T15:57:49.904Z,17.51
2018-06-22T16:00:19.119Z,17.51
2018-06-22T16:02:54.199Z,17.60
2018-06-22T16:05:23.413Z,16.80
2018-06-22T16:07:52.674Z,17.33
2018-06-22T16:10:22.266Z,17.23
2018-06-22T16:12:52.407Z,17.77
2018-06-22T16:15:26.951Z,18.49
2018-06-22T16:18:01.619Z,18.27
2018-06-22T16:20:37.038Z,18.11
2018-06-22T16:23:11.619Z,17.79
2018-06-22T16:25:46.005Z,17.66
2018-06-22T16:28:15.196Z,16.77
2018-06-22T16:30:44.444Z,16.50
2018-06-22T16:33:14.795Z,15.96
2018-06-22T16:35:44.738Z,15.59
2018-06-22T16:38:13.923Z,15.88
2018-06-22T16:40:43.269Z,16.20
2018-06-22T16:43:12.443Z,16.40
2018-06-22T16:45:41.890Z,16.55
2018-06-22T16:48:11.343Z,17.00
2018-06-22T16:50:55.163Z,16.45
2018-06-22T16:53:25.527Z,16.10
2018-06-22T16:55:54.715Z,15.81
2018-06-22T16:58:29.519Z,15.70
2018-06-22T17:00:58.713Z,15.66
2018-06-22T17:03:29.459Z,15.52
2018-06-22T17:05:58.676Z,15.49
2018-06-22T17:08:33.610Z,15.50
2018-06-22T17:11:08.583Z,15.37
2018-06-22T17:13:44.290Z,15.36
2018-06-22T17:16:19.055Z,15.23
2018-06-22T17:18:52.191Z,15.24
2018-06-22T17:21:22.085Z,15.60
2018-06-22T17:23:51.539Z,16.10
2018-06-22T17:26:21.288Z,16.34
2018-06-22T17:28:50.513Z,16.20
2018-06-22T17:31:19.707Z,16.40
2018-06-22T17:33:49.365Z,16.57
2018-06-22T17:36:18.595Z,16.53
2018-06-22T17:38:47.808Z,16.22
2018-06-22T17:41:17.007Z,16.13
2018-06-22T17:43:46.542Z,15.95
2018-06-22T17:46:16.606Z,15.52
2018-06-22T17:48:53.470Z,15.29
2018-06-22T17:51:22.667Z,15.28
2018-06-22T17:53:51.886Z,15.26
2018-06-22T17:56:26.875Z,15.26
2018-06-22T17:59:01.795Z,15.15
2018-06-22T18:01:37.145Z,15.14
2018-06-22T18:04:12.419Z,15.42
2018-06-22T18:07:48.292Z,15.45
2018-06-22T18:10:22.770Z,15.64
2018-06-22T18:12:59.532Z,15.53
2018-06-22T18:15:28.670Z,15.38
2018-06-22T18:17:58.127Z,15.52
2018-06-22T18:20:27.812Z,15.39
2018-06-22T18:22:57.417Z,15.17
2018-06-22T18:25:27.233Z,15.09
2018-06-22T18:27:56.411Z,14.82
2018-06-22T18:30:26.411Z,14.68
2018-06-22T18:32:55.586Z,14.61
2018-06-22T18:35:27.600Z,14.48
2018-06-22T18:37:56.804Z,14.53
2018-06-22T18:40:26.780Z,14.66
2018-06-22T18:42:57.489Z,14.61
2018-06-22T18:45:26.694Z,14.63
2018-06-22T18:47:56.207Z,14.61
2018-06-22T18:50:25.381Z,14.62
2018-06-22T18:52:59.722Z,14.66
2018-06-22T18:55:34.457Z,14.83
2018-06-22T18:58:09.059Z,14.53
2018-06-22T19:00:44.139Z,14.21
2018-06-22T19:03:18.863Z,14.00
2018-06-22T19:05:49.083Z,13.86
2018-06-22T19:08:18.251Z,13.88
2018-06-22T19:10:47.588Z,13.69
2018-06-22T19:13:18.100Z,13.56
2018-06-22T19:15:47.558Z,13.50
2018-06-22T19:18:16.864Z,13.32
2018-06-22T19:20:46.422Z,13.19
2018-06-22T19:23:15.935Z,13.18
2018-06-22T19:25:45.990Z,12.99
2018-06-22T19:28:15.443Z,13.00
2018-06-22T19:30:45.363Z,12.93
2018-06-22T19:33:14.581Z,12.80
2018-06-22T19:35:44.087Z,12.68
2018-06-22T19:38:13.310Z,12.52
2018-06-22T19:40:42.867Z,12.41
2018-06-22T19:43:18.059Z,12.28
2018-06-22T19:45:52.359Z,12.18
2018-06-22T19:48:25.386Z,11.97
2018-06-22T19:50:59.624Z,11.90
2018-06-22T19:53:34.475Z,11.78
2018-06-22T19:56:03.794Z,11.65
2018-06-22T19:58:33.264Z,11.55
2018-06-22T20:01:02.693Z,11.48
2018-06-22T20:03:32.503Z,11.39
2018-06-22T20:06:01.696Z,11.29
2018-06-22T20:08:31.247Z,11.12
2018-06-22T20:11:00.849Z,11.04
2018-06-22T20:13:30.303Z,10.87
2018-06-22T20:15:59.883Z,10.77
2018-06-22T20:18:29.115Z,10.69
2018-06-22T20:20:58.307Z,10.56
2018-06-22T20:23:27.539Z,10.38
2018-06-22T20:25:56.731Z,10.31
2018-06-22T20:28:26.432Z,10.22
2018-06-22T20:30:55.975Z,10.14
2018-06-22T20:33:25.494Z,10.03
2018-06-22T20:35:59.869Z,9.95
2018-06-22T20:38:34.546Z,9.84
2018-06-22T20:41:09.070Z,9.84
2018-06-22T20:43:44.462Z,9.68
2018-06-22T20:46:18.141Z,9.66
2018-06-22T20:48:53.361Z,9.71
2018-06-22T20:51:22.555Z,9.70
2018-06-22T20:53:52.244Z,9.78
2018-06-22T20:56:21.959Z,9.83
2018-06-22T20:58:51.986Z,9.93
2018-06-22T21:01:22.411Z,9.84
2018-06-22T21:03:51.984Z,9.69
2018-06-22T21:06:21.619Z,9.63
2018-06-22T21:08:51.063Z,9.61
2018-06-22T21:11:20.558Z,9.61
2018-06-22T21:13:50.135Z,9.57
2018-06-22T21:16:19.899Z,9.50
2018-06-22T21:18:49.083Z,9.40
2018-06-22T21:22:20.798Z,9.42
2018-06-22T21:24:50.023Z,9.45
2018-06-22T21:27:25.715Z,9.58
2018-06-22T21:30:00.374Z,9.68
2018-06-22T21:32:35.988Z,9.84
2018-06-22T21:35:10.831Z,9.87
2018-06-22T21:37:46.109Z,9.84
2018-06-22T21:40:15.317Z,9.87
2018-06-22T21:42:45.610Z,9.82
2018-06-22T21:45:15.804Z,9.83
2018-06-22T21:47:44.978Z,9.96
2018-06-22T21:50:14.155Z,10.09
2018-06-22T21:52:43.377Z,10.27
2018-06-22T21:55:12.588Z,10.38
2018-06-22T21:57:42.079Z,10.36
2018-06-22T22:00:12.247Z,10.51
2018-06-22T22:02:41.463Z,10.63
2018-06-22T22:05:10.655Z,10.71
2018-06-22T22:07:39.875Z,10.92
2018-06-22T22:10:10.227Z,11.03
2018-06-22T22:12:39.759Z,11.04
2018-06-22T22:15:08.952Z,11.09
2018-06-22T22:17:38.603Z,11.19
2018-06-22T22:20:07.843Z,11.22
2018-06-22T22:22:37.066Z,11.13
2018-06-22T22:25:07.179Z,11.24
2018-06-22T22:27:36.399Z,11.19
2018-06-22T22:30:05.805Z,11.12
2018-06-22T22:32:35.023Z,11.09
2018-06-22T22:35:04.264Z,11.11
2018-06-22T22:37:33.470Z,11.11
2018-06-22T22:40:02.781Z,11.01
2018-06-22T22:42:31.979Z,11.00
2018-06-22T22:45:01.463Z,10.81
2018-06-22T22:47:30.678Z,10.78
2018-06-22T22:49:59.887Z,10.67
2018-06-22T22:52:29.094Z,10.62
2018-06-22T22:54:59.391Z,10.60
2018-06-22T22:57:28.994Z,10.36
2018-06-22T22:59:58.423Z,10.11
2018-06-22T23:02:27.638Z,9.95
2018-06-22T23:04:56.867Z,9.84
2018-06-22T23:07:26.027Z,9.60
2018-06-22T23:09:55.260Z,9.61
2018-06-22T23:12:24.479Z,9.44
2018-06-22T23:14:53.912Z,9.34
2018-06-22T23:17:23.415Z,9.19
2018-06-22T23:19:52.621Z,9.09
2018-06-22T23:23:31.731Z,8.94
2018-06-22T23:26:01.539Z,8.78
2018-06-22T23:28:30.971Z,8.71
2018-06-22T23:31:01.424Z,8.67
2018-06-22T23:33:31.218Z,8.63
2018-06-22T23:36:01.707Z,8.56
2018-06-22T23:38:31.551Z,8.45
2018-06-22T23:41:01.784Z,8.35
2018-06-22T23:43:33.605Z,8.29
2018-06-22T23:46:03.484Z,8.20
2018-06-22T23:48:33.286Z,8.24
2018-06-22T23:51:02.848Z,8.14
2018-06-22T23:53:32.171Z,8.10
2018-06-22T23:56:01.790Z,8.06
2018-06-22T23:58:31.290Z,8.14
